Etusivu
METAR-TAF:

METAR-TAF

Lentoasemat :

Ahvāz, Iran

Leveyspiiri: 31-20N, Pituuspiiri: 048-40E, korkeus merenpinnasta: 20 m

Tämänhetkinen sää

Tämä raportti tehtiin 24 minuuttia sitten, kello 20.00 UTC
Tuuli 2 kn lännestä
Lämpötila 12°C
Kosteus 58%
Ilmanpaine 1020 hPa
Näkyvyys: 2000 m
laajalle levinnyttä pölyä

METAR: OIAW 212000Z 28002KT 2000 DU NSC 12/04 Q1020

Aika: 23:54 (20:24 UTC)

Sääennuste

Tämä raportti tehtiin 3 tuntia ja 14 minuuttia sitten, kello 17.10 UTC
Ennuste voimassa 21. päivästä klo 18 UTC - 22. päivään klo 24 UTC
Tuuli 8 kn luoteesta
Näkyvyys: 2000 m
laajalle levinnyttä pölyä
Tulossa
22. päivästä klo 05 UTC - 22. päivään klo 06 UTC
Näkyvyys: 4000 m
laajalle levinnyttä pölyä
Tulossa
22. päivästä klo 08 UTC - 22. päivään klo 10 UTC
Näkyvyys: 7000 m

TAF: OIAW 211710Z 2118/2224 32004MPS 2000 DU NSC BECMG 2205/2206 4000 DU BECMG 2208/2210 7000

Säähavainnot ja -ennusteet yli 4000 lentoasemalta (METAR- ja TAF-raportit).

Käytössä olevat sääasemat on merkitty karttaan keltaisilla ja punaisilla pisteillä.

Aseta hiiri pisteen päälle nähdäksesi sääaseman nimen.

Klikkaa sitten nähdäksesi säähavainnot ja -ennusteet.

Kartan vaihtaminen: klikkaa mustalla rastilla varustettuja vihreitä pisteitä, niin voit zoomata sisään; viivalla varustettua vihreää pistettä, niin voit zoomata ulos tai vihreitä nuolia, niin pääset viereisille kartoille.


METAR-TAF: